createdAt,value
2023-02-12T00:01:51.108Z,1.45
2023-02-12T00:04:59.815Z,1.38
2023-02-12T00:08:07.141Z,1.17
2023-02-12T00:11:13.035Z,1.28
2023-02-12T00:14:18.643Z,1.30
2023-02-12T00:17:24.475Z,1.29
2023-02-12T00:20:30.286Z,1.25
2023-02-12T00:23:37.510Z,1.21
2023-02-12T00:26:43.444Z,1.45
2023-02-12T00:29:49.516Z,1.11
2023-02-12T00:32:56.490Z,1.15
2023-02-12T00:36:11.830Z,1.30
2023-02-12T00:39:18.611Z,1.57
2023-02-12T00:42:24.093Z,1.38
2023-02-12T00:45:30.134Z,1.23
2023-02-12T00:48:35.603Z,1.20
2023-02-12T00:51:41.865Z,1.16
2023-02-12T00:54:48.882Z,1.33
2023-02-12T00:57:54.661Z,1.31
2023-02-12T01:01:00.303Z,1.33
2023-02-12T01:04:07.617Z,1.27
2023-02-12T01:07:13.636Z,1.35
2023-02-12T01:10:22.155Z,1.19
2023-02-12T01:13:29.148Z,1.28
2023-02-12T01:16:38.332Z,1.19
2023-02-12T01:19:44.600Z,1.25
2023-02-12T01:22:49.859Z,1.14
2023-02-12T01:25:57.270Z,1.09
2023-02-12T01:29:08.089Z,1.27
2023-02-12T01:32:14.239Z,1.07
2023-02-12T01:35:19.656Z,0.96
2023-02-12T01:38:25.436Z,1.08
2023-02-12T01:41:36.575Z,1.04
2023-02-12T01:44:47.048Z,1.02
2023-02-12T01:47:52.846Z,1.04
2023-02-12T01:50:58.786Z,1.00
2023-02-12T01:54:07.307Z,1.13
2023-02-12T01:57:15.144Z,1.00
2023-02-12T02:00:26.747Z,0.90
2023-02-12T02:03:31.874Z,0.89
2023-02-12T02:06:42.428Z,1.12
2023-02-12T02:09:50.780Z,1.14
2023-02-12T02:13:16.182Z,1.00
2023-02-12T02:16:31.977Z,0.91
2023-02-12T02:20:18.324Z,0.96
2023-02-12T02:24:13.867Z,1.10
2023-02-12T02:27:31.169Z,1.02
2023-02-12T02:31:09.570Z,1.15
2023-02-12T02:34:23.396Z,0.98
2023-02-12T02:37:57.189Z,0.92
2023-02-12T02:41:29.692Z,1.10
2023-02-12T02:44:52.297Z,0.99
2023-02-12T02:48:11.491Z,0.86
2023-02-12T02:51:24.226Z,0.74
2023-02-12T02:54:39.423Z,0.69
2023-02-12T02:57:58.354Z,0.76
2023-02-12T03:01:08.145Z,0.75
2023-02-12T03:04:19.419Z,0.90
2023-02-12T03:07:39.613Z,0.91
2023-02-12T03:10:51.772Z,1.11
2023-02-12T03:14:24.488Z,1.02
2023-02-12T03:17:45.854Z,0.99
2023-02-12T03:21:02.068Z,0.97
2023-02-12T03:24:32.126Z,1.07
2023-02-12T03:27:48.515Z,0.90
2023-02-12T03:31:27.693Z,0.76
2023-02-12T03:35:05.773Z,0.85
2023-02-12T03:38:47.539Z,0.80
2023-02-12T03:42:19.966Z,0.89
2023-02-12T03:45:35.426Z,1.22
2023-02-12T03:48:53.264Z,0.91
2023-02-12T03:52:01.267Z,0.70
2023-02-12T03:55:08.086Z,0.75
2023-02-12T03:58:15.586Z,1.04
2023-02-12T04:01:20.754Z,1.09
2023-02-12T04:04:25.592Z,0.97
2023-02-12T04:07:32.081Z,1.10
2023-02-12T04:10:46.354Z,0.84
2023-02-12T04:14:06.134Z,0.91
2023-02-12T04:17:29.198Z,0.91
2023-02-12T04:20:46.839Z,1.13
2023-02-12T04:24:30.186Z,1.20
2023-02-12T04:27:49.603Z,1.04
2023-02-12T04:31:14.041Z,1.12
2023-02-12T04:34:37.154Z,0.86
2023-02-12T04:38:04.499Z,0.87
2023-02-12T04:41:10.411Z,0.58
2023-02-12T04:44:35.799Z,0.48
2023-02-12T04:47:41.714Z,0.47
2023-02-12T04:50:54.765Z,0.51
2023-02-12T04:54:00.142Z,0.39
2023-02-12T04:57:06.759Z,0.32
2023-02-12T05:00:13.005Z,0.25
2023-02-12T05:03:19.174Z,0.25
2023-02-12T05:06:26.787Z,0.15
2023-02-12T05:09:35.113Z,0.23
2023-02-12T05:12:40.998Z,0.23
2023-02-12T05:15:46.620Z,0.15
2023-02-12T05:18:45.338Z,0.23
2023-02-12T05:21:37.952Z,0.41
2023-02-12T05:24:43.993Z,0.41
2023-02-12T05:27:49.450Z,0.63
2023-02-12T05:30:56.074Z,0.60
2023-02-12T05:34:02.250Z,0.60
2023-02-12T05:37:07.817Z,0.57
2023-02-12T05:40:13.247Z,0.63
2023-02-12T05:43:18.744Z,0.90
2023-02-12T05:46:24.310Z,1.05
2023-02-12T05:49:30.174Z,0.73
2023-02-12T05:52:35.060Z,1.15
2023-02-12T05:55:40.421Z,0.84
2023-02-12T05:58:45.864Z,0.99
2023-02-12T06:01:54.095Z,1.11
2023-02-12T06:05:00.666Z,0.83
2023-02-12T06:08:06.912Z,0.93
2023-02-12T06:11:22.086Z,1.07
2023-02-12T06:14:32.882Z,1.04
2023-02-12T06:17:40.281Z,0.92
2023-02-12T06:20:46.773Z,1.01
2023-02-12T06:23:52.485Z,1.20
2023-02-12T06:26:58.403Z,1.09
2023-02-12T06:30:04.772Z,1.26
2023-02-12T06:33:10.639Z,1.53
2023-02-12T06:36:19.219Z,1.65
2023-02-12T06:39:18.655Z,1.91
2023-02-12T06:42:12.399Z,1.48
2023-02-12T06:45:18.984Z,1.41
2023-02-12T06:48:25.245Z,1.59
2023-02-12T06:51:33.099Z,1.85
2023-02-12T06:54:38.356Z,1.91
2023-02-12T06:57:44.549Z,2.12
2023-02-12T07:00:50.334Z,2.13
2023-02-12T07:03:56.602Z,2.17
2023-02-12T07:07:03.238Z,2.01
2023-02-12T07:10:09.862Z,2.35
2023-02-12T07:13:15.979Z,2.12
2023-02-12T07:16:24.016Z,1.86
2023-02-12T07:19:29.819Z,2.08
2023-02-12T07:22:35.806Z,1.63
2023-02-12T07:25:42.265Z,2.01
2023-02-12T07:28:48.283Z,1.99
2023-02-12T07:31:53.177Z,1.98
2023-02-12T07:34:59.887Z,2.00
2023-02-12T07:38:05.744Z,1.94
2023-02-12T07:41:23.292Z,1.84
2023-02-12T07:44:29.341Z,1.98
2023-02-12T07:47:35.613Z,1.90
2023-02-12T07:50:40.721Z,2.00
2023-02-12T07:53:46.377Z,2.03
2023-02-12T07:56:53.703Z,1.99
2023-02-12T07:59:52.932Z,2.17
2023-02-12T08:02:59.838Z,2.40
2023-02-12T08:06:06.211Z,2.44
2023-02-12T08:09:13.596Z,2.72
2023-02-12T08:12:18.852Z,2.78
2023-02-12T08:15:26.667Z,2.92
2023-02-12T08:18:32.488Z,3.25
2023-02-12T08:21:42.744Z,3.73
2023-02-12T08:24:49.568Z,3.56
2023-02-12T08:27:56.487Z,3.60
2023-02-12T08:31:01.738Z,3.70
2023-02-12T08:34:08.914Z,3.45
2023-02-12T08:37:15.525Z,3.47
2023-02-12T08:40:22.186Z,3.42
2023-02-12T08:43:27.685Z,3.61
2023-02-12T08:46:36.410Z,3.38
2023-02-12T08:49:43.694Z,3.30
2023-02-12T08:52:49.741Z,3.42
2023-02-12T08:55:58.341Z,3.63
2023-02-12T08:59:04.813Z,3.65
2023-02-12T09:02:12.968Z,3.55
2023-02-12T09:05:18.666Z,3.61
2023-02-12T09:08:24.402Z,3.68
2023-02-12T09:11:33.833Z,3.42
2023-02-12T09:14:39.341Z,3.47
2023-02-12T09:17:47.917Z,3.54
2023-02-12T09:20:57.214Z,3.31
2023-02-12T09:24:02.187Z,3.14
2023-02-12T09:27:07.704Z,3.12
2023-02-12T09:30:13.232Z,3.20
2023-02-12T09:33:12.464Z,3.25
2023-02-12T09:36:20.608Z,3.07
2023-02-12T09:39:26.171Z,3.18
2023-02-12T09:42:44.364Z,3.42
2023-02-12T09:45:55.194Z,3.25
2023-02-12T09:49:16.756Z,3.26
2023-02-12T09:52:33.435Z,2.94
2023-02-12T09:55:46.177Z,3.15
2023-02-12T09:58:57.133Z,3.16
2023-02-12T10:02:02.730Z,3.26
2023-02-12T10:05:08.798Z,2.85
2023-02-12T10:08:31.994Z,2.80
2023-02-12T10:12:10.807Z,3.01
2023-02-12T10:15:33.774Z,3.08
2023-02-12T10:19:08.594Z,3.24
2023-02-12T10:22:51.357Z,3.43
2023-02-12T10:26:08.857Z,3.42
2023-02-12T10:29:17.754Z,3.59
2023-02-12T10:32:39.214Z,3.66
2023-02-12T10:35:44.724Z,3.43
2023-02-12T10:38:47.268Z,3.48
2023-02-12T10:42:07.588Z,3.29
2023-02-12T10:45:13.274Z,3.17
2023-02-12T10:48:22.928Z,2.99
2023-02-12T10:51:52.589Z,2.99
2023-02-12T10:55:01.929Z,2.86
2023-02-12T10:58:07.439Z,2.95
2023-02-12T11:01:14.208Z,2.97
2023-02-12T11:04:39.512Z,2.86
2023-02-12T11:07:45.032Z,2.70
2023-02-12T11:10:55.731Z,2.63
2023-02-12T11:14:11.886Z,2.81
2023-02-12T11:17:16.471Z,2.88
2023-02-12T11:20:38.508Z,2.62
2023-02-12T11:23:53.700Z,2.32
2023-02-12T11:27:00.173Z,2.22
2023-02-12T11:30:34.971Z,2.08
2023-02-12T11:33:49.629Z,2.07
2023-02-12T11:37:00.467Z,2.07
2023-02-12T11:40:06.723Z,2.05
2023-02-12T11:43:21.030Z,2.25
2023-02-12T11:46:27.056Z,2.27
2023-02-12T11:49:45.963Z,2.02
2023-02-12T11:52:51.988Z,2.24
2023-02-12T11:55:57.001Z,2.19
2023-02-12T11:59:04.454Z,2.37
2023-02-12T12:02:11.031Z,2.22
2023-02-12T12:05:35.457Z,2.29
2023-02-12T12:08:51.496Z,2.59
2023-02-12T12:12:07.894Z,2.55
2023-02-12T12:15:40.104Z,2.69
2023-02-12T12:19:21.932Z,2.61
2023-02-12T12:23:00.740Z,2.58
2023-02-12T12:26:16.338Z,2.49
2023-02-12T12:29:41.020Z,2.19
2023-02-12T12:32:40.474Z,2.01
2023-02-12T12:36:29.642Z,1.66
2023-02-12T12:39:55.396Z,1.62
2023-02-12T12:43:14.825Z,1.71
2023-02-12T12:46:48.538Z,1.65
2023-02-12T12:50:28.363Z,1.64
2023-02-12T12:53:50.484Z,1.75
2023-02-12T12:57:12.143Z,1.75
2023-02-12T13:00:55.441Z,1.60
2023-02-12T13:04:33.776Z,1.77
2023-02-12T13:08:08.556Z,1.74
2023-02-12T13:11:31.032Z,1.43
2023-02-12T13:15:00.261Z,1.63
2023-02-12T13:18:25.866Z,1.82
2023-02-12T13:22:04.764Z,1.56
2023-02-12T13:25:34.129Z,1.51
2023-02-12T13:28:52.499Z,1.21
2023-02-12T13:32:18.333Z,1.08
2023-02-12T13:35:32.958Z,1.22
2023-02-12T13:38:49.211Z,1.22
2023-02-12T13:41:55.655Z,1.21
2023-02-12T13:45:21.569Z,1.22
2023-02-12T13:48:40.515Z,1.26
2023-02-12T13:51:59.794Z,1.44
2023-02-12T13:55:33.919Z,0.99
2023-02-12T13:58:51.624Z,1.20
2023-02-12T14:01:59.945Z,0.98
2023-02-12T14:05:33.898Z,0.97
2023-02-12T14:08:49.535Z,1.15
2023-02-12T14:12:06.052Z,1.11
2023-02-12T14:15:40.793Z,1.21
2023-02-12T14:18:50.244Z,1.02
2023-02-12T14:21:56.813Z,0.91
2023-02-12T14:25:05.784Z,0.87
2023-02-12T14:28:13.659Z,0.73
2023-02-12T14:31:39.646Z,0.77
2023-02-12T14:34:52.743Z,0.71
2023-02-12T14:37:58.867Z,0.62
2023-02-12T14:41:06.030Z,0.64
2023-02-12T14:44:31.029Z,0.61
2023-02-12T14:47:51.273Z,0.64
2023-02-12T14:51:00.931Z,0.79
2023-02-12T14:54:07.309Z,0.71
2023-02-12T14:57:15.224Z,0.55
2023-02-12T15:00:37.522Z,0.48
2023-02-12T15:03:54.519Z,0.42
2023-02-12T15:07:08.278Z,0.46
2023-02-12T15:10:21.458Z,0.67
2023-02-12T15:13:38.552Z,0.77
2023-02-12T15:16:55.225Z,0.75
2023-02-12T15:20:09.708Z,0.86
2023-02-12T15:23:14.373Z,0.79
2023-02-12T15:26:20.982Z,0.71
2023-02-12T15:29:32.973Z,0.83
2023-02-12T15:32:43.774Z,0.49
2023-02-12T15:35:52.663Z,0.55
2023-02-12T15:38:59.309Z,0.51
2023-02-12T15:41:59.215Z,0.65
2023-02-12T15:45:24.187Z,0.50
2023-02-12T15:48:36.253Z,0.65
2023-02-12T15:51:49.461Z,0.93
2023-02-12T15:54:55.370Z,0.64
2023-02-12T15:58:07.054Z,0.68
2023-02-12T16:01:16.737Z,0.68
2023-02-12T16:04:21.849Z,0.46
2023-02-12T16:07:27.762Z,0.41
2023-02-12T16:10:35.108Z,0.39
2023-02-12T16:13:48.827Z,0.43
2023-02-12T16:17:02.751Z,0.39
2023-02-12T16:20:13.393Z,0.38
2023-02-12T16:23:20.607Z,0.47
2023-02-12T16:26:32.792Z,0.58
2023-02-12T16:29:37.115Z,0.59
2023-02-12T16:32:57.039Z,0.70
2023-02-12T16:36:03.091Z,0.43
2023-02-12T16:39:11.947Z,0.38
2023-02-12T16:42:17.879Z,0.63
2023-02-12T16:45:46.087Z,0.57
2023-02-12T16:48:32.224Z,0.71
2023-02-12T16:51:37.422Z,0.61
2023-02-12T16:54:41.026Z,0.69
2023-02-12T16:57:34.960Z,0.55
2023-02-12T17:00:34.474Z,0.49
2023-02-12T17:03:40.204Z,0.56
2023-02-12T17:06:47.412Z,0.47
2023-02-12T17:10:05.642Z,0.48
2023-02-12T17:13:12.365Z,0.56
2023-02-12T17:16:30.386Z,0.80
2023-02-12T17:19:26.479Z,0.59
2023-02-12T17:22:36.937Z,0.52
2023-02-12T17:25:43.227Z,0.53
2023-02-12T17:28:48.430Z,0.22
2023-02-12T17:31:55.213Z,0.47
2023-02-12T17:34:54.944Z,0.33
2023-02-12T17:38:01.634Z,0.43
2023-02-12T17:41:07.775Z,0.55
2023-02-12T17:44:13.379Z,0.46
2023-02-12T17:47:17.935Z,0.51
2023-02-12T17:50:26.013Z,0.54
2023-02-12T17:53:31.530Z,0.68
2023-02-12T17:56:37.816Z,0.49
2023-02-12T17:59:42.985Z,0.60
2023-02-12T18:02:48.916Z,0.52
2023-02-12T18:05:59.650Z,0.60
2023-02-12T18:09:05.669Z,0.45
2023-02-12T18:12:12.587Z,0.60
2023-02-12T18:15:20.424Z,0.24
2023-02-12T18:18:26.213Z,0.29
2023-02-12T18:21:32.911Z,0.16
2023-02-12T18:24:40.630Z,0.12
2023-02-12T18:27:46.175Z,0.19
2023-02-12T18:30:52.538Z,0.16
2023-02-12T18:33:59.907Z,0.25
2023-02-12T18:37:04.249Z,0.17
2023-02-12T18:40:10.676Z,0.27
2023-02-12T18:43:16.914Z,0.24
2023-02-12T18:46:26.926Z,0.30
2023-02-12T18:49:33.198Z,0.42
2023-02-12T18:52:39.442Z,0.10
2023-02-12T18:55:38.089Z,0.24
2023-02-12T18:58:44.001Z,0.35
2023-02-12T19:01:49.462Z,0.44
2023-02-12T19:04:56.924Z,0.39
2023-02-12T19:07:55.881Z,0.28
2023-02-12T19:11:02.245Z,0.10
2023-02-12T19:14:09.211Z,0.21
2023-02-12T19:17:15.762Z,0.33
2023-02-12T19:20:23.278Z,0.41
2023-02-12T19:23:29.587Z,0.15
2023-02-12T19:26:38.421Z,0.18
2023-02-12T19:29:45.252Z,0.38
2023-02-12T19:32:52.002Z,0.25
2023-02-12T19:36:01.649Z,0.25
2023-02-12T19:39:07.664Z,0.08
2023-02-12T19:42:14.201Z,-0.04
2023-02-12T19:45:20.528Z,-0.13
2023-02-12T19:48:28.121Z,0.04
2023-02-12T19:51:36.342Z,-0.06
2023-02-12T19:54:41.791Z,-0.09
2023-02-12T19:57:47.628Z,-0.16
2023-02-12T20:00:54.623Z,-0.49
2023-02-12T20:04:03.220Z,-0.33
2023-02-12T20:07:09.249Z,-0.40
2023-02-12T20:10:16.725Z,-0.48
2023-02-12T20:13:21.710Z,-0.41
2023-02-12T20:16:29.009Z,-0.57
2023-02-12T20:19:44.780Z,-0.34
2023-02-12T20:22:53.421Z,-0.36
2023-02-12T20:25:59.611Z,-0.41
2023-02-12T20:29:05.786Z,-0.32
2023-02-12T20:32:11.723Z,-0.29
2023-02-12T20:35:16.916Z,-0.81
2023-02-12T20:38:22.581Z,-0.43
2023-02-12T20:41:27.853Z,-0.35
2023-02-12T20:44:35.519Z,-0.37
2023-02-12T20:47:40.938Z,-0.23
2023-02-12T20:50:47.913Z,-0.08
2023-02-12T20:53:53.819Z,-0.17
2023-02-12T20:56:59.546Z,-0.04
2023-02-12T21:00:06.028Z,-0.48
2023-02-12T21:03:13.243Z,-0.22
2023-02-12T21:06:18.844Z,-0.14
2023-02-12T21:09:26.487Z,-0.37
2023-02-12T21:12:32.968Z,-0.34
2023-02-12T21:15:39.527Z,-0.56
2023-02-12T21:18:45.291Z,-0.64
2023-02-12T21:21:52.862Z,-0.42
2023-02-12T21:24:59.892Z,-0.31
2023-02-12T21:28:05.603Z,-0.21
2023-02-12T21:31:10.366Z,-0.64
2023-02-12T21:34:16.428Z,-0.51
2023-02-12T21:37:22.064Z,-0.55
2023-02-12T21:40:27.703Z,-0.40
2023-02-12T21:43:34.626Z,-0.17
2023-02-12T21:46:41.299Z,-0.32
2023-02-12T21:49:46.816Z,-0.28
2023-02-12T21:52:53.093Z,-0.45
2023-02-12T21:55:59.709Z,-0.39
2023-02-12T21:59:06.429Z,-0.47
2023-02-12T22:02:12.584Z,-0.23
2023-02-12T22:05:18.583Z,-0.31
2023-02-12T22:08:23.845Z,-0.19
2023-02-12T22:11:31.356Z,-0.28
2023-02-12T22:14:37.449Z,-0.47
2023-02-12T22:17:42.987Z,-0.60
2023-02-12T22:20:48.990Z,-0.42
2023-02-12T22:23:55.252Z,-0.82
2023-02-12T22:27:00.694Z,-0.59
2023-02-12T22:30:08.831Z,-0.38
2023-02-12T22:33:14.135Z,-0.57
2023-02-12T22:36:21.477Z,-0.71
2023-02-12T22:39:28.395Z,-0.77
2023-02-12T22:42:34.698Z,-0.63
2023-02-12T22:45:40.114Z,-0.83
2023-02-12T22:48:44.477Z,-0.82
2023-02-12T22:51:51.272Z,-0.63
2023-02-12T22:54:57.233Z,-0.67
2023-02-12T22:58:03.078Z,-0.52
2023-02-12T23:01:10.483Z,-0.67
2023-02-12T23:04:15.897Z,-0.62
2023-02-12T23:07:22.007Z,-0.64
2023-02-12T23:10:27.086Z,-0.65
2023-02-12T23:13:32.891Z,-0.75
2023-02-12T23:16:38.471Z,-0.85
2023-02-12T23:19:44.433Z,-1.35
2023-02-12T23:22:50.460Z,-1.57
2023-02-12T23:25:55.560Z,-1.61
2023-02-12T23:29:01.623Z,-2.11
2023-02-12T23:32:07.730Z,-2.07
2023-02-12T23:35:12.841Z,-2.17
2023-02-12T23:38:20.546Z,-2.15
2023-02-12T23:41:26.639Z,-2.26
2023-02-12T23:44:33.155Z,-2.44
2023-02-12T23:47:39.025Z,-2.55
2023-02-12T23:50:44.777Z,-2.97
2023-02-12T23:53:50.985Z,-2.86
2023-02-12T23:56:57.436Z,-2.74
2023-02-12T23:59:58.530Z,-2.66
